Lynradar: storm image Ingen tordenbyger registrert..



Vårt webkamera mer informasjon My webcam


Kamera på Foreneset mer informasjon webcam on foreneset


Lynradar mer informasjon blitzortung!


Nedbørsradar  rain snow radar


Besøk vår andre værside:

Alternativ webside

iphone versjon

Nettbrett versjon

Foreneset
verstasjon



Ikke nødvendig med spesiell oppmerksomhet.    Det er ingen advarsler

Nære METAR rapporter

     
ENZV - Stavanger
oppdatert: 20-01-2019 21:50
Lett regn, For det meste skyet  
Lett regn, For det meste skyet  
   Vind: SØ 7.2 m/s
Vind: SØ 7.2 m/s
Temperatur: 3°C
Wind Chill: -2°C
Duggpunkt: 1°C
Fuktighet: 87%
Barometer: 1012 hPa
Skyer: For det meste skyet
Sikt: mer enn 10 km
Skydetaljer: For det meste skyet 518.2 m,
For det meste skyet 1219.2 m
ENZV 202050Z 14014KT 9999 -RA BKN017 BKN040 03/01 Q1012
ENHD - Haugesund
oppdatert: 20-01-2019 21:50
Regn, Dis, For det meste skyet  
Regn, Dis, For det meste skyet  
   Vind: NV 8.2 m/s
Vind: NV 8.2 m/s
Temperatur: 3°C
Wind Chill: -3°C
Duggpunkt: 1°C
Fuktighet: 87%
Barometer: 1012 hPa
Skyer: For det meste skyet
Sikt: 5 km
Skydetaljer: Få Skyer 182.9 m,
Delvis Skyet 335.3 m,
For det meste skyet 579.1 m
ENHD 202050Z 32016KT 5000 RA BR FEW006 SCT011 BKN019 03/01 Q1012
ENBR - Bergen
oppdatert: 20-01-2019 21:50
Lett regn, Snow, For det meste skyet  
Lett regn, Snow, For det meste skyet  
   Vind: SSØ 5.7 m/s
Vind: SSØ 5.7 m/s
Temperatur: 2°C
Wind Chill: -3°C
Duggpunkt: 1°C
Fuktighet: 93%
Barometer: 1010 hPa
Skyer: For det meste skyet
Sikt: 9 km
Skydetaljer: Delvis Skyet 121.9 m,
For det meste skyet 243.8 m
ENBR 202050Z 16011KT 9000 -RASN SCT004 BKN008 02/01 Q1010 RMK WIND 1200FT 13006KT
ENCN - Kristiansand
oppdatert: 20-01-2019 21:50
For det meste skyet  
For det meste skyet  
   Vind: ØNØ 2.1 m/s
Vind: ØNØ 2.1 m/s
Temperatur: -2°C
Wind Chill: -5°C
Duggpunkt: -2°C
Fuktighet: 100%
Barometer: 1016 hPa
Skyer: For det meste skyet
Sikt: mer enn 10 km
Skydetaljer: Få Skyer 762 m,
For det meste skyet 1371.6 m
ENCN 202050Z 06004KT 9999 FEW025 BKN045 M02/M02 Q1016
ENGM - Oslo
oppdatert: 20-01-2019 21:50
Lett snø, Overskyet  
Lett snø, Overskyet  
   Vind: Stille
Vind: Stille
Temperatur: -12°C
Duggpunkt: -13°C
Fuktighet: 92%
Barometer: 1015 hPa
Skyer: Overskyet
Sikt: 7 km
Skydetaljer: Få Skyer 914.4 m,
Overskyet 1097.3 m
ENGM 202050Z 00000KT 7000 -SN FEW030 OVC036 M12/M13 Q1015 TEMPO 4000 -SN
ENVA - Trondheim
oppdatert: 20-01-2019 21:50
Klart  
Klart  
   Vind: Øst 3.6 m/s
Vind: Øst 3.6 m/s
Temperatur: -10°C
Wind Chill: -16°C
Duggpunkt: -10°C
Fuktighet: 100%
Barometer: 1013 hPa
Sikt: mer enn 10 km
Skydetaljer: Klart
ENVA 202050Z 10007KT CAVOK M10/M10 Q1013 RMK WIND 670FT 12009KT
    

Script utviklet av  Saratoga-weather.org Tilrettelagt for malen av  Weerstation Leuven

Du finner vår vær info også på:

UK Metoffice

European Weather Network

WeatherCloud

Weather Underground

Utstyr vi bruker:

Værstsjon
Davis VP2

Værprogram
Weather Display

Davis VP2

Weather Display